sensor_id;sensor_type;location;lat;lon;timestamp;P1;durP1;ratioP1;P2;durP2;ratioP2
71959;SDS011;59832;51.146;14.024;2022-11-20T00:00:16;32.90;;;15.23;;
71959;SDS011;59832;51.146;14.024;2022-11-20T00:02:43;34.40;;;15.50;;
71959;SDS011;59832;51.146;14.024;2022-11-20T00:05:09;34.47;;;15.52;;
71959;SDS011;59832;51.146;14.024;2022-11-20T00:07:35;32.50;;;15.00;;
71959;SDS011;59832;51.146;14.024;2022-11-20T00:10:02;33.45;;;15.30;;
71959;SDS011;59832;51.146;14.024;2022-11-20T00:12:28;35.77;;;15.20;;
71959;SDS011;59832;51.146;14.024;2022-11-20T00:14:55;32.00;;;14.07;;
71959;SDS011;59832;51.146;14.024;2022-11-20T00:17:21;36.72;;;15.00;;
71959;SDS011;59832;51.146;14.024;2022-11-20T00:19:48;34.28;;;14.73;;
71959;SDS011;59832;51.146;14.024;2022-11-20T00:22:14;35.65;;;14.80;;
71959;SDS011;59832;51.146;14.024;2022-11-20T00:24:40;31.38;;;13.82;;
71959;SDS011;59832;51.146;14.024;2022-11-20T00:27:08;29.75;;;13.80;;
71959;SDS011;59832;51.146;14.024;2022-11-20T00:29:34;30.45;;;13.55;;
71959;SDS011;59832;51.146;14.024;2022-11-20T00:32:01;34.00;;;14.07;;
71959;SDS011;59832;51.146;14.024;2022-11-20T00:34:27;29.80;;;12.50;;
71959;SDS011;59832;51.146;14.024;2022-11-20T00:36:54;31.20;;;13.68;;
71959;SDS011;59832;51.146;14.024;2022-11-20T00:39:20;33.83;;;13.30;;
71959;SDS011;59832;51.146;14.024;2022-11-20T00:41:47;31.52;;;13.70;;
71959;SDS011;59832;51.146;14.024;2022-11-20T00:44:13;34.13;;;13.23;;
71959;SDS011;59832;51.146;14.024;2022-11-20T00:46:40;31.00;;;13.80;;
71959;SDS011;59832;51.146;14.024;2022-11-20T00:49:06;29.95;;;13.95;;
71959;SDS011;59832;51.146;14.024;2022-11-20T00:51:33;27.90;;;12.60;;
71959;SDS011;59832;51.146;14.024;2022-11-20T00:53:59;30.02;;;13.30;;
71959;SDS011;59832;51.146;14.024;2022-11-20T00:56:26;32.28;;;13.65;;
71959;SDS011;59832;51.146;14.024;2022-11-20T00:58:52;39.17;;;14.05;;
71959;SDS011;59832;51.146;14.024;2022-11-20T01:01:23;33.03;;;13.43;;
71959;SDS011;59832;51.146;14.024;2022-11-20T01:03:51;34.70;;;13.63;;
71959;SDS011;59832;51.146;14.024;2022-11-20T01:06:26;31.55;;;13.23;;
71959;SDS011;59832;51.146;14.024;2022-11-20T01:08:58;29.98;;;13.13;;
71959;SDS011;59832;51.146;14.024;2022-11-20T01:11:27;33.08;;;13.93;;
71959;SDS011;59832;51.146;14.024;2022-11-20T01:13:59;31.73;;;13.02;;
71959;SDS011;59832;51.146;14.024;2022-11-20T01:16:28;32.33;;;13.77;;
71959;SDS011;59832;51.146;14.024;2022-11-20T01:18:58;28.65;;;12.70;;
71959;SDS011;59832;51.146;14.024;2022-11-20T01:21:27;30.98;;;13.38;;
71959;SDS011;59832;51.146;14.024;2022-11-20T01:23:56;30.60;;;12.75;;
71959;SDS011;59832;51.146;14.024;2022-11-20T01:26:24;30.92;;;13.63;;
71959;SDS011;59832;51.146;14.024;2022-11-20T01:28:51;30.52;;;13.40;;
71959;SDS011;59832;51.146;14.024;2022-11-20T01:31:20;31.85;;;14.07;;
71959;SDS011;59832;51.146;14.024;2022-11-20T01:33:52;33.13;;;13.48;;
71959;SDS011;59832;51.146;14.024;2022-11-20T01:36:20;33.35;;;12.93;;
71959;SDS011;59832;51.146;14.024;2022-11-20T01:38:50;37.08;;;14.13;;
71959;SDS011;59832;51.146;14.024;2022-11-20T01:41:18;37.25;;;13.40;;
71959;SDS011;59832;51.146;14.024;2022-11-20T01:44:03;34.90;;;13.10;;
71959;SDS011;59832;51.146;14.024;2022-11-20T01:46:34;35.65;;;13.75;;
71959;SDS011;59832;51.146;14.024;2022-11-20T01:49:08;30.55;;;13.35;;
71959;SDS011;59832;51.146;14.024;2022-11-20T01:51:42;32.22;;;13.98;;
71959;SDS011;59832;51.146;14.024;2022-11-20T01:54:18;32.13;;;13.57;;
71959;SDS011;59832;51.146;14.024;2022-11-20T01:56:48;31.00;;;13.88;;
71959;SDS011;59832;51.146;14.024;2022-11-20T01:59:19;32.50;;;14.23;;
71959;SDS011;59832;51.146;14.024;2022-11-20T02:01:49;30.30;;;13.73;;
71959;SDS011;59832;51.146;14.024;2022-11-20T02:04:15;30.80;;;12.80;;
71959;SDS011;59832;51.146;14.024;2022-11-20T02:06:46;35.05;;;14.32;;
71959;SDS011;59832;51.146;14.024;2022-11-20T02:09:16;32.13;;;13.48;;
71959;SDS011;59832;51.146;14.024;2022-11-20T02:11:42;28.75;;;12.98;;
71959;SDS011;59832;51.146;14.024;2022-11-20T02:14:09;34.08;;;14.52;;
71959;SDS011;59832;51.146;14.024;2022-11-20T02:16:40;33.38;;;13.98;;
71959;SDS011;59832;51.146;14.024;2022-11-20T02:19:27;36.15;;;14.75;;
71959;SDS011;59832;51.146;14.024;2022-11-20T02:22:02;35.22;;;13.63;;
71959;SDS011;59832;51.146;14.024;2022-11-20T02:24:34;36.33;;;13.77;;
71959;SDS011;59832;51.146;14.024;2022-11-20T02:27:05;36.30;;;14.65;;
71959;SDS011;59832;51.146;14.024;2022-11-20T02:29:36;35.63;;;13.90;;
71959;SDS011;59832;51.146;14.024;2022-11-20T02:32:06;33.40;;;13.60;;
71959;SDS011;59832;51.146;14.024;2022-11-20T02:34:32;39.40;;;15.27;;
71959;SDS011;59832;51.146;14.024;2022-11-20T02:36:59;40.33;;;13.85;;
71959;SDS011;59832;51.146;14.024;2022-11-20T02:39:26;37.20;;;15.48;;
71959;SDS011;59832;51.146;14.024;2022-11-20T02:41:54;35.10;;;13.93;;
71959;SDS011;59832;51.146;14.024;2022-11-20T02:44:22;38.42;;;14.55;;
71959;SDS011;59832;51.146;14.024;2022-11-20T02:46:48;35.40;;;13.70;;
71959;SDS011;59832;51.146;14.024;2022-11-20T02:49:14;30.05;;;13.63;;
71959;SDS011;59832;51.146;14.024;2022-11-20T02:51:42;36.47;;;14.15;;
71959;SDS011;59832;51.146;14.024;2022-11-20T02:54:08;31.60;;;13.00;;
71959;SDS011;59832;51.146;14.024;2022-11-20T02:56:37;31.73;;;13.50;;
71959;SDS011;59832;51.146;14.024;2022-11-20T02:59:05;39.10;;;14.48;;
71959;SDS011;59832;51.146;14.024;2022-11-20T03:01:32;30.42;;;13.23;;
71959;SDS011;59832;51.146;14.024;2022-11-20T03:03:58;30.58;;;13.50;;
71959;SDS011;59832;51.146;14.024;2022-11-20T03:06:25;33.58;;;14.25;;
71959;SDS011;59832;51.146;14.024;2022-11-20T03:08:51;34.75;;;14.02;;
71959;SDS011;59832;51.146;14.024;2022-11-20T03:11:18;33.92;;;13.35;;
71959;SDS011;59832;51.146;14.024;2022-11-20T03:13:44;32.05;;;12.57;;
71959;SDS011;59832;51.146;14.024;2022-11-20T03:16:18;33.47;;;13.52;;
71959;SDS011;59832;51.146;14.024;2022-11-20T03:18:46;37.00;;;14.50;;
71959;SDS011;59832;51.146;14.024;2022-11-20T03:21:13;31.95;;;14.20;;
71959;SDS011;59832;51.146;14.024;2022-11-20T03:23:40;35.22;;;13.75;;
71959;SDS011;59832;51.146;14.024;2022-11-20T03:26:25;36.30;;;13.82;;
71959;SDS011;59832;51.146;14.024;2022-11-20T03:28:59;33.13;;;13.35;;
71959;SDS011;59832;51.146;14.024;2022-11-20T03:31:30;30.38;;;13.70;;
71959;SDS011;59832;51.146;14.024;2022-11-20T03:33:59;35.70;;;13.85;;
71959;SDS011;59832;51.146;14.024;2022-11-20T03:36:26;32.35;;;13.07;;
71959;SDS011;59832;51.146;14.024;2022-11-20T03:38:54;35.22;;;14.40;;
71959;SDS011;59832;51.146;14.024;2022-11-20T03:41:23;35.97;;;13.75;;
71959;SDS011;59832;51.146;14.024;2022-11-20T03:43:52;33.45;;;14.07;;
71959;SDS011;59832;51.146;14.024;2022-11-20T03:46:20;37.38;;;14.57;;
71959;SDS011;59832;51.146;14.024;2022-11-20T03:48:48;35.17;;;14.10;;
71959;SDS011;59832;51.146;14.024;2022-11-20T03:53:49;34.10;;;14.00;;
71959;SDS011;59832;51.146;14.024;2022-11-20T03:56:17;33.38;;;13.13;;
71959;SDS011;59832;51.146;14.024;2022-11-20T03:58:44;31.45;;;13.48;;
71959;SDS011;59832;51.146;14.024;2022-11-20T04:01:15;32.58;;;13.32;;
71959;SDS011;59832;51.146;14.024;2022-11-20T04:03:44;34.35;;;13.10;;
71959;SDS011;59832;51.146;14.024;2022-11-20T04:06:18;35.00;;;13.48;;
71959;SDS011;59832;51.146;14.024;2022-11-20T04:08:46;29.65;;;13.18;;
71959;SDS011;59832;51.146;14.024;2022-11-20T04:11:22;31.15;;;13.48;;
71959;SDS011;59832;51.146;14.024;2022-11-20T04:14:00;31.70;;;13.82;;
71959;SDS011;59832;51.146;14.024;2022-11-20T04:16:29;34.15;;;12.90;;
71959;SDS011;59832;51.146;14.024;2022-11-20T04:18:57;31.35;;;13.35;;
71959;SDS011;59832;51.146;14.024;2022-11-20T04:21:25;34.10;;;14.65;;
71959;SDS011;59832;51.146;14.024;2022-11-20T04:23:52;35.17;;;14.00;;
71959;SDS011;59832;51.146;14.024;2022-11-20T04:26:20;29.38;;;13.05;;
71959;SDS011;59832;51.146;14.024;2022-11-20T04:28:48;29.90;;;13.23;;
71959;SDS011;59832;51.146;14.024;2022-11-20T04:31:15;35.92;;;14.15;;
71959;SDS011;59832;51.146;14.024;2022-11-20T04:33:43;34.75;;;13.95;;
71959;SDS011;59832;51.146;14.024;2022-11-20T04:38:42;36.13;;;14.38;;
71959;SDS011;59832;51.146;14.024;2022-11-20T04:41:12;33.55;;;14.30;;
71959;SDS011;59832;51.146;14.024;2022-11-20T04:43:41;35.05;;;14.30;;
71959;SDS011;59832;51.146;14.024;2022-11-20T04:46:12;33.28;;;14.02;;
71959;SDS011;59832;51.146;14.024;2022-11-20T04:48:38;36.75;;;15.00;;
71959;SDS011;59832;51.146;14.024;2022-11-20T04:51:05;34.03;;;14.30;;
71959;SDS011;59832;51.146;14.024;2022-11-20T04:53:32;41.08;;;15.15;;
71959;SDS011;59832;51.146;14.024;2022-11-20T04:56:02;32.70;;;14.30;;
71959;SDS011;59832;51.146;14.024;2022-11-20T04:58:30;35.90;;;14.35;;
71959;SDS011;59832;51.146;14.024;2022-11-20T05:01:01;33.17;;;13.97;;
71959;SDS011;59832;51.146;14.024;2022-11-20T05:03:32;33.10;;;14.40;;
71959;SDS011;59832;51.146;14.024;2022-11-20T05:06:04;34.30;;;13.73;;
71959;SDS011;59832;51.146;14.024;2022-11-20T05:08:32;39.58;;;15.57;;
71959;SDS011;59832;51.146;14.024;2022-11-20T05:11:18;35.90;;;15.15;;
71959;SDS011;59832;51.146;14.024;2022-11-20T05:13:46;34.83;;;14.70;;
71959;SDS011;59832;51.146;14.024;2022-11-20T05:16:13;37.85;;;14.93;;
71959;SDS011;59832;51.146;14.024;2022-11-20T05:18:42;33.22;;;14.00;;
71959;SDS011;59832;51.146;14.024;2022-11-20T05:21:09;39.15;;;15.95;;
71959;SDS011;59832;51.146;14.024;2022-11-20T05:23:37;37.45;;;15.20;;
71959;SDS011;59832;51.146;14.024;2022-11-20T05:26:05;36.45;;;15.40;;
71959;SDS011;59832;51.146;14.024;2022-11-20T05:28:33;35.47;;;14.32;;
71959;SDS011;59832;51.146;14.024;2022-11-20T05:31:07;45.05;;;15.45;;
71959;SDS011;59832;51.146;14.024;2022-11-20T05:33:35;39.15;;;15.68;;
71959;SDS011;59832;51.146;14.024;2022-11-20T05:36:04;37.88;;;15.77;;
71959;SDS011;59832;51.146;14.024;2022-11-20T05:38:31;36.45;;;15.27;;
71959;SDS011;59832;51.146;14.024;2022-11-20T05:41:05;44.17;;;16.38;;
71959;SDS011;59832;51.146;14.024;2022-11-20T05:43:37;43.08;;;16.35;;
71959;SDS011;59832;51.146;14.024;2022-11-20T05:46:05;38.47;;;15.95;;
71959;SDS011;59832;51.146;14.024;2022-11-20T05:48:33;42.47;;;15.95;;
71959;SDS011;59832;51.146;14.024;2022-11-20T05:51:01;46.83;;;18.80;;
71959;SDS011;59832;51.146;14.024;2022-11-20T05:53:29;43.33;;;17.63;;
71959;SDS011;59832;51.146;14.024;2022-11-20T05:56:01;41.47;;;16.58;;
71959;SDS011;59832;51.146;14.024;2022-11-20T05:58:30;41.70;;;16.63;;
71959;SDS011;59832;51.146;14.024;2022-11-20T06:03:53;52.03;;;19.35;;
71959;SDS011;59832;51.146;14.024;2022-11-20T06:06:20;41.53;;;16.35;;
71959;SDS011;59832;51.146;14.024;2022-11-20T06:08:48;42.35;;;16.50;;
71959;SDS011;59832;51.146;14.024;2022-11-20T06:11:15;42.90;;;16.33;;
71959;SDS011;59832;51.146;14.024;2022-11-20T06:13:42;41.15;;;16.33;;
71959;SDS011;59832;51.146;14.024;2022-11-20T06:16:09;40.13;;;15.98;;
71959;SDS011;59832;51.146;14.024;2022-11-20T06:21:07;43.23;;;17.13;;
71959;SDS011;59832;51.146;14.024;2022-11-20T06:23:37;46.28;;;17.45;;
71959;SDS011;59832;51.146;14.024;2022-11-20T06:26:07;43.78;;;17.25;;
71959;SDS011;59832;51.146;14.024;2022-11-20T06:28:35;46.42;;;17.23;;
71959;SDS011;59832;51.146;14.024;2022-11-20T06:31:02;44.67;;;17.58;;
71959;SDS011;59832;51.146;14.024;2022-11-20T06:33:30;42.05;;;16.92;;
71959;SDS011;59832;51.146;14.024;2022-11-20T06:35:58;47.00;;;17.63;;
71959;SDS011;59832;51.146;14.024;2022-11-20T06:38:30;45.85;;;18.25;;
71959;SDS011;59832;51.146;14.024;2022-11-20T06:40:57;47.75;;;18.70;;
71959;SDS011;59832;51.146;14.024;2022-11-20T06:43:23;42.60;;;17.90;;
71959;SDS011;59832;51.146;14.024;2022-11-20T06:45:53;44.23;;;18.30;;
71959;SDS011;59832;51.146;14.024;2022-11-20T06:48:20;56.13;;;19.60;;
71959;SDS011;59832;51.146;14.024;2022-11-20T06:50:47;44.75;;;17.98;;
71959;SDS011;59832;51.146;14.024;2022-11-20T06:53:13;43.60;;;17.75;;
71959;SDS011;59832;51.146;14.024;2022-11-20T06:55:44;47.05;;;17.40;;
71959;SDS011;59832;51.146;14.024;2022-11-20T06:58:11;44.63;;;17.23;;
71959;SDS011;59832;51.146;14.024;2022-11-20T07:00:38;46.92;;;16.92;;
71959;SDS011;59832;51.146;14.024;2022-11-20T07:03:06;46.10;;;17.83;;
71959;SDS011;59832;51.146;14.024;2022-11-20T07:05:35;47.55;;;17.83;;
71959;SDS011;59832;51.146;14.024;2022-11-20T07:08:02;44.92;;;17.88;;
71959;SDS011;59832;51.146;14.024;2022-11-20T07:10:29;42.08;;;17.67;;
71959;SDS011;59832;51.146;14.024;2022-11-20T07:12:55;48.47;;;18.08;;
71959;SDS011;59832;51.146;14.024;2022-11-20T07:15:22;44.60;;;18.05;;
71959;SDS011;59832;51.146;14.024;2022-11-20T07:17:50;47.08;;;18.92;;
71959;SDS011;59832;51.146;14.024;2022-11-20T07:20:16;48.47;;;18.40;;
71959;SDS011;59832;51.146;14.024;2022-11-20T07:22:43;47.45;;;17.83;;
71959;SDS011;59832;51.146;14.024;2022-11-20T07:25:10;41.35;;;16.77;;
71959;SDS011;59832;51.146;14.024;2022-11-20T07:27:36;45.53;;;17.45;;
71959;SDS011;59832;51.146;14.024;2022-11-20T07:30:03;51.45;;;18.02;;
71959;SDS011;59832;51.146;14.024;2022-11-20T07:32:30;41.95;;;16.20;;
71959;SDS011;59832;51.146;14.024;2022-11-20T07:34:57;40.47;;;16.37;;
71959;SDS011;59832;51.146;14.024;2022-11-20T07:37:23;41.47;;;16.77;;
71959;SDS011;59832;51.146;14.024;2022-11-20T07:39:49;46.30;;;17.70;;
71959;SDS011;59832;51.146;14.024;2022-11-20T07:42:16;38.20;;;15.90;;
71959;SDS011;59832;51.146;14.024;2022-11-20T07:44:42;40.40;;;15.77;;
71959;SDS011;59832;51.146;14.024;2022-11-20T07:47:09;39.78;;;16.20;;
71959;SDS011;59832;51.146;14.024;2022-11-20T07:49:35;43.90;;;16.55;;
71959;SDS011;59832;51.146;14.024;2022-11-20T07:52:01;40.75;;;16.13;;
71959;SDS011;59832;51.146;14.024;2022-11-20T07:54:30;36.92;;;16.17;;
71959;SDS011;59832;51.146;14.024;2022-11-20T07:56:57;40.53;;;16.30;;
71959;SDS011;59832;51.146;14.024;2022-11-20T07:59:23;37.33;;;16.48;;
71959;SDS011;59832;51.146;14.024;2022-11-20T08:01:49;40.45;;;15.70;;
71959;SDS011;59832;51.146;14.024;2022-11-20T08:04:16;36.28;;;16.38;;
71959;SDS011;59832;51.146;14.024;2022-11-20T08:06:42;33.67;;;15.55;;
71959;SDS011;59832;51.146;14.024;2022-11-20T08:09:09;31.30;;;14.90;;
71959;SDS011;59832;51.146;14.024;2022-11-20T08:11:35;29.67;;;14.10;;
71959;SDS011;59832;51.146;14.024;2022-11-20T08:14:20;33.67;;;15.32;;
71959;SDS011;59832;51.146;14.024;2022-11-20T08:16:47;32.50;;;15.35;;
71959;SDS011;59832;51.146;14.024;2022-11-20T08:19:16;34.78;;;16.25;;
71959;SDS011;59832;51.146;14.024;2022-11-20T08:21:43;29.30;;;14.68;;
71959;SDS011;59832;51.146;14.024;2022-11-20T08:24:10;27.90;;;14.40;;
71959;SDS011;59832;51.146;14.024;2022-11-20T08:26:38;29.63;;;14.43;;
71959;SDS011;59832;51.146;14.024;2022-11-20T08:29:05;24.50;;;13.88;;
71959;SDS011;59832;51.146;14.024;2022-11-20T08:31:32;27.40;;;13.27;;
71959;SDS011;59832;51.146;14.024;2022-11-20T08:33:59;22.55;;;12.07;;
71959;SDS011;59832;51.146;14.024;2022-11-20T08:36:25;28.02;;;13.75;;
71959;SDS011;59832;51.146;14.024;2022-11-20T08:38:53;25.77;;;13.05;;
71959;SDS011;59832;51.146;14.024;2022-11-20T08:41:21;24.20;;;11.88;;
71959;SDS011;59832;51.146;14.024;2022-11-20T08:43:55;27.88;;;11.68;;
71959;SDS011;59832;51.146;14.024;2022-11-20T08:46:26;21.23;;;10.57;;
71959;SDS011;59832;51.146;14.024;2022-11-20T08:48:57;21.50;;;11.70;;
71959;SDS011;59832;51.146;14.024;2022-11-20T08:53:50;22.40;;;11.33;;
71959;SDS011;59832;51.146;14.024;2022-11-20T08:56:17;21.63;;;9.98;;
71959;SDS011;59832;51.146;14.024;2022-11-20T08:58:44;23.80;;;11.23;;
71959;SDS011;59832;51.146;14.024;2022-11-20T09:01:30;23.45;;;10.90;;
71959;SDS011;59832;51.146;14.024;2022-11-20T09:03:56;22.90;;;10.73;;
71959;SDS011;59832;51.146;14.024;2022-11-20T09:06:23;17.85;;;9.82;;
71959;SDS011;59832;51.146;14.024;2022-11-20T09:08:53;20.38;;;10.27;;
71959;SDS011;59832;51.146;14.024;2022-11-20T09:11:20;16.83;;;9.00;;
71959;SDS011;59832;51.146;14.024;2022-11-20T09:13:47;17.77;;;9.68;;
71959;SDS011;59832;51.146;14.024;2022-11-20T09:16:13;19.70;;;10.10;;
71959;SDS011;59832;51.146;14.024;2022-11-20T09:18:40;16.33;;;9.30;;
71959;SDS011;59832;51.146;14.024;2022-11-20T09:21:10;16.02;;;8.90;;
71959;SDS011;59832;51.146;14.024;2022-11-20T09:23:38;18.05;;;9.07;;
71959;SDS011;59832;51.146;14.024;2022-11-20T09:26:06;15.05;;;8.20;;
71959;SDS011;59832;51.146;14.024;2022-11-20T09:28:34;17.52;;;8.70;;
71959;SDS011;59832;51.146;14.024;2022-11-20T09:31:04;15.48;;;8.63;;
71959;SDS011;59832;51.146;14.024;2022-11-20T09:33:32;15.75;;;8.57;;
71959;SDS011;59832;51.146;14.024;2022-11-20T09:35:58;14.05;;;8.20;;
71959;SDS011;59832;51.146;14.024;2022-11-20T09:38:24;13.70;;;8.30;;
71959;SDS011;59832;51.146;14.024;2022-11-20T09:40:55;14.30;;;7.80;;
71959;SDS011;59832;51.146;14.024;2022-11-20T09:43:27;13.57;;;7.53;;
71959;SDS011;59832;51.146;14.024;2022-11-20T09:54:17;10.65;;;6.93;;
71959;SDS011;59832;51.146;14.024;2022-11-20T09:56:49;12.57;;;7.13;;
71959;SDS011;59832;51.146;14.024;2022-11-20T09:59:23;15.32;;;7.78;;
71959;SDS011;59832;51.146;14.024;2022-11-20T10:02:02;10.80;;;6.90;;
71959;SDS011;59832;51.146;14.024;2022-11-20T10:04:43;10.45;;;6.63;;
71959;SDS011;59832;51.146;14.024;2022-11-20T10:07:16;10.65;;;6.72;;
71959;SDS011;59832;51.146;14.024;2022-11-20T10:09:58;11.95;;;7.32;;
71959;SDS011;59832;51.146;14.024;2022-11-20T10:12:35;11.85;;;7.22;;
71959;SDS011;59832;51.146;14.024;2022-11-20T10:26:26;15.90;;;8.35;;
71959;SDS011;59832;51.146;14.024;2022-11-20T10:29:10;11.82;;;7.35;;
71959;SDS011;59832;51.146;14.024;2022-11-20T10:31:37;11.55;;;6.47;;
71959;SDS011;59832;51.146;14.024;2022-11-20T10:34:16;10.43;;;6.72;;
71959;SDS011;59832;51.146;14.024;2022-11-20T10:36:55;11.02;;;6.43;;
71959;SDS011;59832;51.146;14.024;2022-11-20T10:39:26;10.43;;;6.65;;
71959;SDS011;59832;51.146;14.024;2022-11-20T10:42:00;10.43;;;6.75;;
71959;SDS011;59832;51.146;14.024;2022-11-20T10:44:27;9.98;;;6.30;;
71959;SDS011;59832;51.146;14.024;2022-11-20T10:47:18;9.85;;;6.20;;
71959;SDS011;59832;51.146;14.024;2022-11-20T10:49:46;7.68;;;5.63;;
71959;SDS011;59832;51.146;14.024;2022-11-20T10:52:22;12.32;;;6.20;;
71959;SDS011;59832;51.146;14.024;2022-11-20T10:55:11;8.18;;;6.10;;
71959;SDS011;59832;51.146;14.024;2022-11-20T11:00:21;10.43;;;6.30;;
71959;SDS011;59832;51.146;14.024;2022-11-20T11:02:48;7.65;;;5.65;;
71959;SDS011;59832;51.146;14.024;2022-11-20T11:06:03;9.05;;;5.95;;
71959;SDS011;59832;51.146;14.024;2022-11-20T11:08:03;7.65;;;5.90;;
71959;SDS011;59832;51.146;14.024;2022-11-20T11:10:37;9.57;;;6.70;;
71959;SDS011;59832;51.146;14.024;2022-11-20T11:13:23;10.68;;;6.47;;
71959;SDS011;59832;51.146;14.024;2022-11-20T11:15:52;9.15;;;6.20;;
71959;SDS011;59832;51.146;14.024;2022-11-20T11:18:24;8.32;;;6.15;;
71959;SDS011;59832;51.146;14.024;2022-11-20T11:20:53;10.00;;;6.65;;
71959;SDS011;59832;51.146;14.024;2022-11-20T11:23:31;10.75;;;6.43;;
71959;SDS011;59832;51.146;14.024;2022-11-20T11:26:05;8.93;;;6.15;;
71959;SDS011;59832;51.146;14.024;2022-11-20T11:28:33;10.65;;;7.28;;
71959;SDS011;59832;51.146;14.024;2022-11-20T11:31:00;10.60;;;7.40;;
71959;SDS011;59832;51.146;14.024;2022-11-20T11:33:27;10.27;;;7.00;;
71959;SDS011;59832;51.146;14.024;2022-11-20T11:35:56;9.32;;;5.88;;
71959;SDS011;59832;51.146;14.024;2022-11-20T11:38:29;8.27;;;5.68;;
71959;SDS011;59832;51.146;14.024;2022-11-20T11:41:00;10.07;;;5.97;;
71959;SDS011;59832;51.146;14.024;2022-11-20T11:43:31;7.93;;;5.15;;
71959;SDS011;59832;51.146;14.024;2022-11-20T11:51:56;7.97;;;4.75;;
71959;SDS011;59832;51.146;14.024;2022-11-20T11:54:33;6.38;;;5.00;;
71959;SDS011;59832;51.146;14.024;2022-11-20T11:57:17;6.20;;;4.85;;
71959;SDS011;59832;51.146;14.024;2022-11-20T12:02:36;7.80;;;4.95;;
71959;SDS011;59832;51.146;14.024;2022-11-20T12:08:41;7.72;;;4.70;;
71959;SDS011;59832;51.146;14.024;2022-11-20T12:11:30;7.88;;;5.38;;
71959;SDS011;59832;51.146;14.024;2022-11-20T12:14:14;10.35;;;5.70;;
71959;SDS011;59832;51.146;14.024;2022-11-20T12:16:41;9.32;;;5.38;;
71959;SDS011;59832;51.146;14.024;2022-11-20T12:19:12;8.73;;;5.53;;
71959;SDS011;59832;51.146;14.024;2022-11-20T12:21:44;8.15;;;5.28;;
71959;SDS011;59832;51.146;14.024;2022-11-20T12:27:03;9.18;;;5.60;;
71959;SDS011;59832;51.146;14.024;2022-11-20T12:29:45;9.07;;;5.93;;
71959;SDS011;59832;51.146;14.024;2022-11-20T12:32:22;9.25;;;5.60;;
71959;SDS011;59832;51.146;14.024;2022-11-20T12:38:11;9.40;;;5.93;;
71959;SDS011;59832;51.146;14.024;2022-11-20T12:44:04;13.68;;;6.22;;
71959;SDS011;59832;51.146;14.024;2022-11-20T12:47:28;12.00;;;6.32;;
71959;SDS011;59832;51.146;14.024;2022-11-20T12:53:40;9.57;;;5.50;;
71959;SDS011;59832;51.146;14.024;2022-11-20T13:01:51;13.07;;;6.90;;
71959;SDS011;59832;51.146;14.024;2022-11-20T13:07:03;16.40;;;8.52;;
71959;SDS011;59832;51.146;14.024;2022-11-20T13:09:42;17.17;;;8.65;;
71959;SDS011;59832;51.146;14.024;2022-11-20T13:12:58;14.82;;;7.05;;
71959;SDS011;59832;51.146;14.024;2022-11-20T13:18:04;7.85;;;6.03;;
71959;SDS011;59832;51.146;14.024;2022-11-20T13:20:34;11.43;;;6.28;;
71959;SDS011;59832;51.146;14.024;2022-11-20T13:23:02;11.40;;;6.10;;
71959;SDS011;59832;51.146;14.024;2022-11-20T13:25:29;11.10;;;5.50;;
71959;SDS011;59832;51.146;14.024;2022-11-20T13:28:04;9.38;;;5.63;;
71959;SDS011;59832;51.146;14.024;2022-11-20T13:30:52;10.48;;;6.47;;
71959;SDS011;59832;51.146;14.024;2022-11-20T13:33:25;8.57;;;5.70;;
71959;SDS011;59832;51.146;14.024;2022-11-20T13:36:05;8.77;;;5.50;;
71959;SDS011;59832;51.146;14.024;2022-11-20T13:38:40;8.57;;;5.80;;
71959;SDS011;59832;51.146;14.024;2022-11-20T13:41:10;8.77;;;5.50;;
71959;SDS011;59832;51.146;14.024;2022-11-20T13:43:59;7.85;;;5.32;;
71959;SDS011;59832;51.146;14.024;2022-11-20T13:46:44;7.88;;;4.63;;
71959;SDS011;59832;51.146;14.024;2022-11-20T13:49:25;7.43;;;4.90;;
71959;SDS011;59832;51.146;14.024;2022-11-20T13:51:58;5.68;;;4.13;;
71959;SDS011;59832;51.146;14.024;2022-11-20T13:57:37;6.10;;;4.22;;
71959;SDS011;59832;51.146;14.024;2022-11-20T14:00:25;7.00;;;4.60;;
71959;SDS011;59832;51.146;14.024;2022-11-20T14:05:37;9.02;;;5.35;;
71959;SDS011;59832;51.146;14.024;2022-11-20T14:08:07;6.22;;;4.45;;
71959;SDS011;59832;51.146;14.024;2022-11-20T14:10:43;7.95;;;5.18;;
71959;SDS011;59832;51.146;14.024;2022-11-20T14:13:10;6.97;;;4.72;;
71959;SDS011;59832;51.146;14.024;2022-11-20T14:15:43;6.65;;;4.75;;
71959;SDS011;59832;51.146;14.024;2022-11-20T14:18:20;8.43;;;5.00;;
71959;SDS011;59832;51.146;14.024;2022-11-20T14:20:48;7.50;;;5.00;;
71959;SDS011;59832;51.146;14.024;2022-11-20T14:23:23;6.82;;;5.15;;
71959;SDS011;59832;51.146;14.024;2022-11-20T14:25:55;7.82;;;4.95;;
71959;SDS011;59832;51.146;14.024;2022-11-20T14:28:26;9.32;;;5.45;;
71959;SDS011;59832;51.146;14.024;2022-11-20T14:30:55;12.15;;;5.75;;
71959;SDS011;59832;51.146;14.024;2022-11-20T14:33:25;9.88;;;6.15;;
71959;SDS011;59832;51.146;14.024;2022-11-20T14:35:53;12.70;;;6.43;;
71959;SDS011;59832;51.146;14.024;2022-11-20T14:38:24;9.05;;;6.13;;
71959;SDS011;59832;51.146;14.024;2022-11-20T14:40:52;9.13;;;6.18;;
71959;SDS011;59832;51.146;14.024;2022-11-20T14:43:26;11.32;;;6.25;;
71959;SDS011;59832;51.146;14.024;2022-11-20T14:46:03;12.30;;;6.80;;
71959;SDS011;59832;51.146;14.024;2022-11-20T14:48:40;11.68;;;6.70;;
71959;SDS011;59832;51.146;14.024;2022-11-20T14:53:37;9.90;;;6.50;;
71959;SDS011;59832;51.146;14.024;2022-11-20T14:56:04;13.10;;;6.93;;
71959;SDS011;59832;51.146;14.024;2022-11-20T14:58:31;12.48;;;6.63;;
71959;SDS011;59832;51.146;14.024;2022-11-20T15:03:33;14.13;;;7.50;;
71959;SDS011;59832;51.146;14.024;2022-11-20T15:06:05;12.48;;;7.43;;
71959;SDS011;59832;51.146;14.024;2022-11-20T15:08:32;10.60;;;6.72;;
71959;SDS011;59832;51.146;14.024;2022-11-20T15:10:59;11.13;;;7.20;;
71959;SDS011;59832;51.146;14.024;2022-11-20T15:13:36;12.82;;;7.93;;
71959;SDS011;59832;51.146;14.024;2022-11-20T15:16:08;12.63;;;7.82;;
71959;SDS011;59832;51.146;14.024;2022-11-20T15:18:43;13.43;;;8.05;;
71959;SDS011;59832;51.146;14.024;2022-11-20T15:21:11;15.65;;;7.68;;
71959;SDS011;59832;51.146;14.024;2022-11-20T15:23:38;16.00;;;8.18;;
71959;SDS011;59832;51.146;14.024;2022-11-20T15:26:05;13.50;;;7.30;;
71959;SDS011;59832;51.146;14.024;2022-11-20T15:28:34;14.05;;;7.95;;
71959;SDS011;59832;51.146;14.024;2022-11-20T15:31:03;13.82;;;7.97;;
71959;SDS011;59832;51.146;14.024;2022-11-20T15:33:30;14.10;;;8.85;;
71959;SDS011;59832;51.146;14.024;2022-11-20T15:35:57;15.05;;;8.02;;
71959;SDS011;59832;51.146;14.024;2022-11-20T15:38:24;14.20;;;7.97;;
71959;SDS011;59832;51.146;14.024;2022-11-20T15:40:50;16.50;;;8.63;;
71959;SDS011;59832;51.146;14.024;2022-11-20T15:43:17;16.65;;;9.55;;
71959;SDS011;59832;51.146;14.024;2022-11-20T15:50:56;16.65;;;9.18;;
71959;SDS011;59832;51.146;14.024;2022-11-20T15:53:26;15.10;;;8.98;;
71959;SDS011;59832;51.146;14.024;2022-11-20T15:55:53;19.80;;;10.32;;
71959;SDS011;59832;51.146;14.024;2022-11-20T15:58:19;17.15;;;9.68;;
71959;SDS011;59832;51.146;14.024;2022-11-20T16:00:46;16.83;;;9.60;;